sensor_id;sensor_type;location;lat;lon;timestamp;pressure;altitude;pressure_sealevel;temperature;humidity
58092;BME280;43896;48.178;11.578;2023-07-29T00:01:51;95531.00;;;18.50;77.59
58092;BME280;43896;48.178;11.578;2023-07-29T00:04:25;95541.84;;;18.55;77.44
58092;BME280;43896;48.178;11.578;2023-07-29T00:06:52;95564.06;;;18.68;77.45
58092;BME280;43896;48.178;11.578;2023-07-29T00:09:18;95574.47;;;18.76;77.77
58092;BME280;43896;48.178;11.578;2023-07-29T00:11:46;95568.53;;;18.42;79.55
58092;BME280;43896;48.178;11.578;2023-07-29T00:14:20;95528.88;;;18.27;78.76
58092;BME280;43896;48.178;11.578;2023-07-29T00:17:01;95563.09;;;18.62;78.08
58092;BME280;43896;48.178;11.578;2023-07-29T00:19:42;95546.56;;;18.53;77.90
58092;BME280;43896;48.178;11.578;2023-07-29T00:22:14;95602.09;;;18.88;77.95
58092;BME280;43896;48.178;11.578;2023-07-29T00:24:54;95548.19;;;18.54;77.84
58092;BME280;43896;48.178;11.578;2023-07-29T00:27:25;95517.56;;;18.39;77.48
58092;BME280;43896;48.178;11.578;2023-07-29T00:30:14;95592.50;;;18.81;77.25
58092;BME280;43896;48.178;11.578;2023-07-29T00:32:44;95489.66;;;18.16;77.74
58092;BME280;43896;48.178;11.578;2023-07-29T00:35:15;95511.50;;;18.25;78.33
58092;BME280;43896;48.178;11.578;2023-07-29T00:37:49;95543.59;;;18.36;78.89
58092;BME280;43896;48.178;11.578;2023-07-29T00:40:27;95590.75;;;18.61;78.28
58092;BME280;43896;48.178;11.578;2023-07-29T00:42:54;95502.63;;;18.06;78.79
58092;BME280;43896;48.178;11.578;2023-07-29T00:45:23;95539.72;;;18.32;78.15
58092;BME280;43896;48.178;11.578;2023-07-29T00:48:01;95515.00;;;18.18;77.94
58092;BME280;43896;48.178;11.578;2023-07-29T00:50:33;95550.28;;;18.46;78.21
58092;BME280;43896;48.178;11.578;2023-07-29T00:53:04;95521.22;;;18.12;78.45
58092;BME280;43896;48.178;11.578;2023-07-29T00:55:34;95548.19;;;18.23;79.27
58092;BME280;43896;48.178;11.578;2023-07-29T00:58:05;95526.28;;;18.21;78.86
58092;BME280;43896;48.178;11.578;2023-07-29T01:00:54;95514.03;;;18.13;78.82
58092;BME280;43896;48.178;11.578;2023-07-29T01:03:33;95550.28;;;18.46;78.38
58092;BME280;43896;48.178;11.578;2023-07-29T01:06:11;95520.91;;;18.27;77.99
58092;BME280;43896;48.178;11.578;2023-07-29T01:09:05;95485.84;;;18.05;77.71
58092;BME280;43896;48.178;11.578;2023-07-29T01:11:52;95511.75;;;18.16;77.83
58092;BME280;43896;48.178;11.578;2023-07-29T01:14:36;95576.03;;;18.59;77.96
58092;BME280;43896;48.178;11.578;2023-07-29T01:17:09;95555.78;;;18.51;78.07
58092;BME280;43896;48.178;11.578;2023-07-29T01:22:51;95501.09;;;18.16;78.27
58092;BME280;43896;48.178;11.578;2023-07-29T01:25:17;95501.91;;;18.17;78.41
58092;BME280;43896;48.178;11.578;2023-07-29T01:27:48;95502.56;;;18.12;78.57
58092;BME280;43896;48.178;11.578;2023-07-29T01:30:16;95502.50;;;18.26;78.72
58092;BME280;43896;48.178;11.578;2023-07-29T01:35:47;95479.53;;;17.93;78.23
58092;BME280;43896;48.178;11.578;2023-07-29T01:38:28;95505.31;;;17.99;78.62
58092;BME280;43896;48.178;11.578;2023-07-29T01:41:06;95499.47;;;17.63;79.97
58092;BME280;43896;48.178;11.578;2023-07-29T01:43:34;95500.47;;;16.77;85.19
58092;BME280;43896;48.178;11.578;2023-07-29T01:46:10;95570.41;;;17.96;82.29
58092;BME280;43896;48.178;11.578;2023-07-29T01:48:50;95490.06;;;16.96;83.94
58092;BME280;43896;48.178;11.578;2023-07-29T01:51:25;95484.72;;;16.76;85.00
58092;BME280;43896;48.178;11.578;2023-07-29T01:54:01;95485.25;;;17.38;81.81
58092;BME280;43896;48.178;11.578;2023-07-29T01:56:34;95495.56;;;17.21;83.61
58092;BME280;43896;48.178;11.578;2023-07-29T01:59:07;95465.63;;;17.39;81.22
58092;BME280;43896;48.178;11.578;2023-07-29T02:01:46;95520.66;;;17.32;83.81
58092;BME280;43896;48.178;11.578;2023-07-29T02:04:16;95564.44;;;18.01;81.76
58092;BME280;43896;48.178;11.578;2023-07-29T02:06:54;95455.91;;;17.65;80.52
58092;BME280;43896;48.178;11.578;2023-07-29T02:09:20;95453.03;;;17.21;82.04
58092;BME280;43896;48.178;11.578;2023-07-29T02:11:51;95485.16;;;17.71;80.83
58092;BME280;43896;48.178;11.578;2023-07-29T02:14:26;95495.75;;;17.78;80.59
58092;BME280;43896;48.178;11.578;2023-07-29T02:16:57;95464.50;;;17.67;80.13
58092;BME280;43896;48.178;11.578;2023-07-29T02:19:34;95490.63;;;17.90;79.56
58092;BME280;43896;48.178;11.578;2023-07-29T02:22:08;95501.63;;;18.00;79.30
58092;BME280;43896;48.178;11.578;2023-07-29T02:24:41;95494.50;;;17.87;79.38
58092;BME280;43896;48.178;11.578;2023-07-29T02:27:09;95445.28;;;17.65;78.92
58092;BME280;43896;48.178;11.578;2023-07-29T02:29:49;95517.81;;;17.98;79.11
58092;BME280;43896;48.178;11.578;2023-07-29T02:32:23;95518.41;;;18.01;79.16
58092;BME280;43896;48.178;11.578;2023-07-29T02:34:59;95445.19;;;17.39;80.04
58092;BME280;43896;48.178;11.578;2023-07-29T02:37:47;95483.53;;;17.63;79.77
58092;BME280;43896;48.178;11.578;2023-07-29T02:40:17;95527.66;;;17.91;79.69
58092;BME280;43896;48.178;11.578;2023-07-29T02:42:53;95452.94;;;17.41;79.45
58092;BME280;43896;48.178;11.578;2023-07-29T02:45:31;95509.28;;;17.76;79.26
58092;BME280;43896;48.178;11.578;2023-07-29T02:48:08;95528.09;;;17.88;79.36
58092;BME280;43896;48.178;11.578;2023-07-29T02:50:36;95489.94;;;17.49;79.91
58092;BME280;43896;48.178;11.578;2023-07-29T02:53:09;95554.47;;;17.83;80.63
58092;BME280;43896;48.178;11.578;2023-07-29T02:55:44;95473.63;;;17.32;80.49
58092;BME280;43896;48.178;11.578;2023-07-29T02:58:14;95518.78;;;17.52;80.88
58092;BME280;43896;48.178;11.578;2023-07-29T03:00:45;95512.94;;;17.03;83.44
58092;BME280;43896;48.178;11.578;2023-07-29T03:03:17;95494.28;;;17.37;81.13
58092;BME280;43896;48.178;11.578;2023-07-29T03:05:47;95568.41;;;17.65;81.67
58092;BME280;43896;48.178;11.578;2023-07-29T03:08:12;95470.41;;;17.17;81.60
58092;BME280;43896;48.178;11.578;2023-07-29T03:10:40;95499.63;;;17.10;82.81
58092;BME280;43896;48.178;11.578;2023-07-29T03:13:10;95472.41;;;17.28;80.87
58092;BME280;43896;48.178;11.578;2023-07-29T03:15:43;95536.25;;;17.80;80.24
58092;BME280;43896;48.178;11.578;2023-07-29T03:18:16;95477.44;;;17.56;79.85
58092;BME280;43896;48.178;11.578;2023-07-29T03:20:53;95487.22;;;17.62;80.09
58092;BME280;43896;48.178;11.578;2023-07-29T03:23:23;95550.50;;;18.06;79.89
58092;BME280;43896;48.178;11.578;2023-07-29T03:26:00;95498.63;;;17.76;79.84
58092;BME280;43896;48.178;11.578;2023-07-29T03:28:33;95474.97;;;17.55;79.84
58092;BME280;43896;48.178;11.578;2023-07-29T03:31:03;95538.50;;;17.96;79.31
58092;BME280;43896;48.178;11.578;2023-07-29T03:33:31;95445.91;;;17.08;80.81
58092;BME280;43896;48.178;11.578;2023-07-29T03:36:06;95449.00;;;16.52;82.87
58092;BME280;43896;48.178;11.578;2023-07-29T03:38:34;95482.31;;;16.54;83.60
58092;BME280;43896;48.178;11.578;2023-07-29T03:41:13;95447.34;;;16.77;81.51
58092;BME280;43896;48.178;11.578;2023-07-29T03:43:41;95490.19;;;17.28;79.81
58092;BME280;43896;48.178;11.578;2023-07-29T03:46:11;95499.56;;;17.43;79.33
58092;BME280;43896;48.178;11.578;2023-07-29T03:48:44;95448.94;;;17.18;78.76
58092;BME280;43896;48.178;11.578;2023-07-29T03:51:34;95535.88;;;17.70;78.80
58092;BME280;43896;48.178;11.578;2023-07-29T03:54:00;95483.03;;;17.41;77.60
58092;BME280;43896;48.178;11.578;2023-07-29T03:56:25;95495.84;;;17.51;77.38
58092;BME280;43896;48.178;11.578;2023-07-29T03:58:57;95469.19;;;17.19;77.82
58092;BME280;43896;48.178;11.578;2023-07-29T04:01:32;95504.31;;;17.35;78.16
58092;BME280;43896;48.178;11.578;2023-07-29T04:04:03;95453.66;;;17.10;77.85
58092;BME280;43896;48.178;11.578;2023-07-29T04:06:33;95457.13;;;17.10;78.05
58092;BME280;43896;48.178;11.578;2023-07-29T04:09:06;95530.22;;;17.46;78.65
58092;BME280;43896;48.178;11.578;2023-07-29T04:11:34;95452.47;;;16.72;80.29
58092;BME280;43896;48.178;11.578;2023-07-29T04:14:04;95481.91;;;16.84;80.50
58092;BME280;43896;48.178;11.578;2023-07-29T04:16:32;95460.44;;;16.72;80.58
58092;BME280;43896;48.178;11.578;2023-07-29T04:19:00;95468.84;;;16.62;81.81
58092;BME280;43896;48.178;11.578;2023-07-29T04:21:30;95475.13;;;16.95;80.02
58092;BME280;43896;48.178;11.578;2023-07-29T04:23:58;95460.03;;;16.82;80.84
58092;BME280;43896;48.178;11.578;2023-07-29T04:26:26;95473.31;;;16.89;80.47
58092;BME280;43896;48.178;11.578;2023-07-29T04:28:52;95469.84;;;16.61;82.19
58092;BME280;43896;48.178;11.578;2023-07-29T04:31:27;95417.97;;;16.32;81.96
58092;BME280;43896;48.178;11.578;2023-07-29T04:33:57;95481.66;;;16.72;82.71
58092;BME280;43896;48.178;11.578;2023-07-29T04:36:29;95473.50;;;16.60;83.07
58092;BME280;43896;48.178;11.578;2023-07-29T04:38:57;95489.84;;;16.97;81.51
58092;BME280;43896;48.178;11.578;2023-07-29T04:41:27;95492.91;;;17.08;81.05
58092;BME280;43896;48.178;11.578;2023-07-29T04:44:06;95409.19;;;16.52;81.08
58092;BME280;43896;48.178;11.578;2023-07-29T04:46:42;95467.53;;;17.18;79.52
58092;BME280;43896;48.178;11.578;2023-07-29T04:49:07;95435.31;;;16.55;81.18
58092;BME280;43896;48.178;11.578;2023-07-29T04:51:33;95431.84;;;16.87;79.62
58092;BME280;43896;48.178;11.578;2023-07-29T04:54:06;95434.47;;;16.94;79.86
58092;BME280;43896;48.178;11.578;2023-07-29T04:56:44;95507.81;;;17.15;81.32
58092;BME280;43896;48.178;11.578;2023-07-29T04:59:50;95507.09;;;17.53;80.60
58092;BME280;43896;48.178;11.578;2023-07-29T05:02:43;95438.31;;;17.18;79.56
58092;BME280;43896;48.178;11.578;2023-07-29T05:05:12;95456.03;;;17.83;77.62
58092;BME280;43896;48.178;11.578;2023-07-29T05:07:59;95441.66;;;17.52;78.35
58092;BME280;43896;48.178;11.578;2023-07-29T05:10:34;95469.47;;;18.02;78.40
58092;BME280;43896;48.178;11.578;2023-07-29T05:13:02;95445.19;;;18.23;75.35
58092;BME280;43896;48.178;11.578;2023-07-29T05:15:30;95506.16;;;18.56;75.88
58092;BME280;43896;48.178;11.578;2023-07-29T05:17:58;95422.94;;;17.72;77.54
58092;BME280;43896;48.178;11.578;2023-07-29T05:20:28;95424.44;;;17.61;77.33
58092;BME280;43896;48.178;11.578;2023-07-29T05:22:59;95428.88;;;18.13;75.92
58092;BME280;43896;48.178;11.578;2023-07-29T05:28:43;95409.59;;;18.17;74.69
58092;BME280;43896;48.178;11.578;2023-07-29T05:31:13;95392.78;;;17.92;76.25
58092;BME280;43896;48.178;11.578;2023-07-29T05:33:57;95418.78;;;18.22;75.37
58092;BME280;43896;48.178;11.578;2023-07-29T05:36:39;95447.56;;;18.56;74.32
58092;BME280;43896;48.178;11.578;2023-07-29T05:39:12;95404.22;;;18.49;73.76
58092;BME280;43896;48.178;11.578;2023-07-29T05:41:57;95464.22;;;19.02;72.88
58092;BME280;43896;48.178;11.578;2023-07-29T05:44:33;95481.78;;;19.10;73.22
58092;BME280;43896;48.178;11.578;2023-07-29T05:46:58;95445.31;;;18.60;73.67
58092;BME280;43896;48.178;11.578;2023-07-29T05:49:24;95430.50;;;18.64;73.43
58092;BME280;43896;48.178;11.578;2023-07-29T05:51:52;95436.66;;;18.65;73.52
58092;BME280;43896;48.178;11.578;2023-07-29T05:54:18;95458.81;;;19.09;72.66
58092;BME280;43896;48.178;11.578;2023-07-29T05:56:44;95443.72;;;18.78;72.70
58092;BME280;43896;48.178;11.578;2023-07-29T05:59:09;95457.09;;;18.96;72.26
58092;BME280;43896;48.178;11.578;2023-07-29T06:01:34;95492.59;;;19.34;71.73
58092;BME280;43896;48.178;11.578;2023-07-29T06:04:00;95541.03;;;19.49;71.28
58092;BME280;43896;48.178;11.578;2023-07-29T06:06:25;95493.69;;;19.07;71.12
58092;BME280;43896;48.178;11.578;2023-07-29T06:08:51;95539.44;;;19.48;71.50
58092;BME280;43896;48.178;11.578;2023-07-29T06:11:16;95475.41;;;18.86;73.27
58092;BME280;43896;48.178;11.578;2023-07-29T06:13:42;95427.06;;;18.07;76.64
58092;BME280;43896;48.178;11.578;2023-07-29T06:16:07;95438.88;;;18.43;76.33
58092;BME280;43896;48.178;11.578;2023-07-29T06:18:32;95430.81;;;18.31;76.33
58092;BME280;43896;48.178;11.578;2023-07-29T06:20:58;95481.16;;;19.08;75.33
58092;BME280;43896;48.178;11.578;2023-07-29T06:23:23;95459.47;;;19.04;75.05
58092;BME280;43896;48.178;11.578;2023-07-29T06:26:04;95499.66;;;19.46;75.09
58092;BME280;43896;48.178;11.578;2023-07-29T06:28:30;95439.34;;;19.27;74.50
58092;BME280;43896;48.178;11.578;2023-07-29T06:30:56;95479.03;;;19.35;74.75
58092;BME280;43896;48.178;11.578;2023-07-29T06:33:21;95409.00;;;18.41;76.30
58092;BME280;43896;48.178;11.578;2023-07-29T06:35:49;95468.31;;;19.05;75.48
58092;BME280;43896;48.178;11.578;2023-07-29T06:38:17;95508.81;;;19.32;74.89
58092;BME280;43896;48.178;11.578;2023-07-29T06:40:47;95477.47;;;19.09;75.69
58092;BME280;43896;48.178;11.578;2023-07-29T06:43:12;95482.69;;;19.22;74.33
58092;BME280;43896;48.178;11.578;2023-07-29T06:45:38;95461.38;;;18.97;74.53
58092;BME280;43896;48.178;11.578;2023-07-29T06:48:03;95477.97;;;18.99;74.43
58092;BME280;43896;48.178;11.578;2023-07-29T06:50:29;95506.66;;;19.22;74.17
58092;BME280;43896;48.178;11.578;2023-07-29T06:52:54;95538.59;;;19.29;73.93
58092;BME280;43896;48.178;11.578;2023-07-29T06:55:19;95557.84;;;19.31;74.29
58092;BME280;43896;48.178;11.578;2023-07-29T06:57:46;95567.41;;;19.20;74.06
58092;BME280;43896;48.178;11.578;2023-07-29T07:00:11;95578.88;;;19.21;74.09
58092;BME280;43896;48.178;11.578;2023-07-29T07:02:37;95554.06;;;18.95;74.85
58092;BME280;43896;48.178;11.578;2023-07-29T07:05:02;95551.78;;;18.99;76.01
58092;BME280;43896;48.178;11.578;2023-07-29T07:07:27;95593.91;;;19.34;76.72
58092;BME280;43896;48.178;11.578;2023-07-29T07:09:53;95546.06;;;18.95;77.37
58092;BME280;43896;48.178;11.578;2023-07-29T07:12:18;95556.78;;;18.88;78.55
58092;BME280;43896;48.178;11.578;2023-07-29T07:14:44;95580.06;;;19.00;78.85
58092;BME280;43896;48.178;11.578;2023-07-29T07:17:09;95573.97;;;19.18;78.74
58092;BME280;43896;48.178;11.578;2023-07-29T07:19:34;95570.13;;;19.32;78.30
58092;BME280;43896;48.178;11.578;2023-07-29T07:22:00;95566.28;;;19.28;78.38
58092;BME280;43896;48.178;11.578;2023-07-29T07:24:25;95583.19;;;19.40;78.98
58092;BME280;43896;48.178;11.578;2023-07-29T07:26:51;95562.22;;;19.25;78.99
58092;BME280;43896;48.178;11.578;2023-07-29T07:29:16;95524.69;;;19.02;79.11
58092;BME280;43896;48.178;11.578;2023-07-29T07:31:50;95512.59;;;18.74;80.02
58092;BME280;43896;48.178;11.578;2023-07-29T07:34:16;95567.88;;;18.53;82.72
58092;BME280;43896;48.178;11.578;2023-07-29T07:37:00;95554.19;;;18.05;85.75
58092;BME280;43896;48.178;11.578;2023-07-29T07:39:31;95539.00;;;18.12;85.74
58092;BME280;43896;48.178;11.578;2023-07-29T07:41:57;95500.91;;;17.73;87.14
58092;BME280;43896;48.178;11.578;2023-07-29T07:44:25;95531.94;;;18.63;84.12
58092;BME280;43896;48.178;11.578;2023-07-29T07:46:54;95485.69;;;18.25;84.24
58092;BME280;43896;48.178;11.578;2023-07-29T07:49:19;95510.03;;;18.61;85.25
58092;BME280;43896;48.178;11.578;2023-07-29T07:51:45;95521.31;;;19.13;81.72
58092;BME280;43896;48.178;11.578;2023-07-29T07:54:10;95459.38;;;18.42;83.28
58092;BME280;43896;48.178;11.578;2023-07-29T07:56:35;95459.78;;;18.39;84.48
58092;BME280;43896;48.178;11.578;2023-07-29T07:59:01;95506.22;;;18.75;85.65
58092;BME280;43896;48.178;11.578;2023-07-29T08:01:26;95503.03;;;18.66;85.56
58092;BME280;43896;48.178;11.578;2023-07-29T08:03:51;95518.69;;;19.06;83.15
58092;BME280;43896;48.178;11.578;2023-07-29T08:06:17;95467.53;;;18.98;81.08
58092;BME280;43896;48.178;11.578;2023-07-29T08:08:45;95465.38;;;19.06;80.18
58092;BME280;43896;48.178;11.578;2023-07-29T08:11:10;95500.28;;;19.23;80.26
58092;BME280;43896;48.178;11.578;2023-07-29T08:13:36;95472.50;;;19.13;80.16
58092;BME280;43896;48.178;11.578;2023-07-29T08:16:01;95471.97;;;18.28;83.95
58092;BME280;43896;48.178;11.578;2023-07-29T08:18:27;95498.97;;;18.64;84.08
58092;BME280;43896;48.178;11.578;2023-07-29T08:20:56;95476.41;;;18.91;82.62
58092;BME280;43896;48.178;11.578;2023-07-29T08:23:28;95524.16;;;19.37;81.27
58092;BME280;43896;48.178;11.578;2023-07-29T08:25:55;95431.41;;;19.02;80.41
58092;BME280;43896;48.178;11.578;2023-07-29T08:28:22;95497.28;;;19.38;80.42
58092;BME280;43896;48.178;11.578;2023-07-29T08:30:48;95467.66;;;19.46;79.47
58092;BME280;43896;48.178;11.578;2023-07-29T08:33:13;95527.13;;;20.02;78.55
58092;BME280;43896;48.178;11.578;2023-07-29T08:35:38;95465.31;;;19.87;77.19
58092;BME280;43896;48.178;11.578;2023-07-29T08:38:03;95430.66;;;19.50;77.84
58092;BME280;43896;48.178;11.578;2023-07-29T08:40:30;95464.84;;;19.72;77.79
58092;BME280;43896;48.178;11.578;2023-07-29T08:42:58;95455.78;;;19.79;77.86
58092;BME280;43896;48.178;11.578;2023-07-29T08:45:24;95466.75;;;19.16;81.42
58092;BME280;43896;48.178;11.578;2023-07-29T08:47:52;95525.94;;;19.24;81.61
58092;BME280;43896;48.178;11.578;2023-07-29T08:50:19;95507.44;;;19.48;79.54
58092;BME280;43896;48.178;11.578;2023-07-29T08:52:45;95461.84;;;19.13;79.85
58092;BME280;43896;48.178;11.578;2023-07-29T08:55:11;95504.66;;;19.73;78.28
58092;BME280;43896;48.178;11.578;2023-07-29T08:57:37;95489.41;;;19.62;79.05
58092;BME280;43896;48.178;11.578;2023-07-29T09:00:03;95477.47;;;19.64;78.51
58092;BME280;43896;48.178;11.578;2023-07-29T09:02:29;95535.00;;;20.28;76.76
58092;BME280;43896;48.178;11.578;2023-07-29T09:04:54;95480.75;;;19.85;78.03
58092;BME280;43896;48.178;11.578;2023-07-29T09:07:20;95451.38;;;19.85;77.62
58092;BME280;43896;48.178;11.578;2023-07-29T09:09:45;95530.22;;;20.48;76.17
58092;BME280;43896;48.178;11.578;2023-07-29T09:12:11;95460.81;;;20.30;76.16
58092;BME280;43896;48.178;11.578;2023-07-29T09:14:37;95480.25;;;20.07;75.59
58092;BME280;43896;48.178;11.578;2023-07-29T09:17:02;95478.25;;;20.74;74.09
58092;BME280;43896;48.178;11.578;2023-07-29T09:19:27;95530.22;;;21.14;72.43
58092;BME280;43896;48.178;11.578;2023-07-29T09:21:53;95534.06;;;21.65;69.77
58092;BME280;43896;48.178;11.578;2023-07-29T09:24:20;95509.63;;;21.62;70.81
58092;BME280;43896;48.178;11.578;2023-07-29T09:26:52;95512.69;;;21.94;69.17
58092;BME280;43896;48.178;11.578;2023-07-29T09:29:22;95479.28;;;22.25;66.10
58092;BME280;43896;48.178;11.578;2023-07-29T09:31:48;95533.38;;;22.68;66.73
58092;BME280;43896;48.178;11.578;2023-07-29T09:34:15;95523.31;;;22.92;64.29
58092;BME280;43896;48.178;11.578;2023-07-29T09:36:41;95471.72;;;21.53;65.49
58092;BME280;43896;48.178;11.578;2023-07-29T09:39:11;95514.59;;;21.82;66.70
58092;BME280;43896;48.178;11.578;2023-07-29T09:41:37;95462.88;;;21.93;65.85
58092;BME280;43896;48.178;11.578;2023-07-29T09:44:03;95484.19;;;22.28;64.82
58092;BME280;43896;48.178;11.578;2023-07-29T09:46:35;95483.97;;;22.47;65.02
58092;BME280;43896;48.178;11.578;2023-07-29T09:49:02;95493.22;;;22.56;64.74
58092;BME280;43896;48.178;11.578;2023-07-29T09:51:28;95524.88;;;22.42;66.46
58092;BME280;43896;48.178;11.578;2023-07-29T09:53:54;95518.53;;;23.28;63.07
58092;BME280;43896;48.178;11.578;2023-07-29T09:56:24;95507.38;;;23.98;60.52
58092;BME280;43896;48.178;11.578;2023-07-29T09:58:51;95452.03;;;23.96;60.06
58092;BME280;43896;48.178;11.578;2023-07-29T10:01:16;95475.75;;;24.05;61.67
58092;BME280;43896;48.178;11.578;2023-07-29T10:03:44;95469.63;;;23.65;63.01
58092;BME280;43896;48.178;11.578;2023-07-29T10:06:10;95450.41;;;23.95;59.63
58092;BME280;43896;48.178;11.578;2023-07-29T10:08:36;95495.53;;;23.54;60.73
58092;BME280;43896;48.178;11.578;2023-07-29T10:11:06;95451.00;;;23.81;58.31
58092;BME280;43896;48.178;11.578;2023-07-29T10:13:32;95513.41;;;24.10;58.63
58092;BME280;43896;48.178;11.578;2023-07-29T10:15:59;95493.34;;;23.51;62.56
58092;BME280;43896;48.178;11.578;2023-07-29T10:18:28;95420.53;;;23.26;59.08
58092;BME280;43896;48.178;11.578;2023-07-29T10:20:54;95492.16;;;23.81;60.81
58092;BME280;43896;48.178;11.578;2023-07-29T10:26:22;95491.50;;;24.73;58.31
58092;BME280;43896;48.178;11.578;2023-07-29T10:29:15;95486.63;;;25.02;56.57
58092;BME280;43896;48.178;11.578;2023-07-29T10:32:05;95481.19;;;25.29;59.79
58092;BME280;43896;48.178;11.578;2023-07-29T10:34:33;95410.44;;;24.59;59.46
58092;BME280;43896;48.178;11.578;2023-07-29T10:37:02;95458.97;;;25.17;56.31
58092;BME280;43896;48.178;11.578;2023-07-29T10:39:27;95472.09;;;25.45;56.66
58092;BME280;43896;48.178;11.578;2023-07-29T10:42:03;95475.53;;;25.94;53.30
58092;BME280;43896;48.178;11.578;2023-07-29T10:47:13;95463.38;;;25.81;52.54
58092;BME280;43896;48.178;11.578;2023-07-29T10:49:42;95452.84;;;25.74;53.32
58092;BME280;43896;48.178;11.578;2023-07-29T10:52:08;95451.28;;;25.25;55.31
58092;BME280;43896;48.178;11.578;2023-07-29T10:54:47;95481.34;;;25.60;52.65
58092;BME280;43896;48.178;11.578;2023-07-29T10:57:31;95449.19;;;25.00;54.26
58092;BME280;43896;48.178;11.578;2023-07-29T10:59:58;95450.16;;;24.84;54.39
58092;BME280;43896;48.178;11.578;2023-07-29T11:02:34;95471.59;;;24.74;56.06
58092;BME280;43896;48.178;11.578;2023-07-29T11:05:05;95458.59;;;24.33;56.88
58092;BME280;43896;48.178;11.578;2023-07-29T11:07:46;95476.66;;;24.43;56.49
58092;BME280;43896;48.178;11.578;2023-07-29T11:10:12;95480.88;;;24.56;56.57
58092;BME280;43896;48.178;11.578;2023-07-29T11:12:54;95482.78;;;24.33;57.65
58092;BME280;43896;48.178;11.578;2023-07-29T11:15:26;95489.56;;;23.69;55.99
58092;BME280;43896;48.178;11.578;2023-07-29T11:17:56;95510.53;;;23.50;54.58
58092;BME280;43896;48.178;11.578;2023-07-29T11:20:25;95515.00;;;24.06;54.08
58092;BME280;43896;48.178;11.578;2023-07-29T11:22:52;95465.47;;;23.74;55.13
58092;BME280;43896;48.178;11.578;2023-07-29T11:25:18;95423.66;;;23.39;54.79
58092;BME280;43896;48.178;11.578;2023-07-29T11:27:45;95430.75;;;23.68;53.78
58092;BME280;43896;48.178;11.578;2023-07-29T11:30:12;95457.91;;;23.10;57.39
58092;BME280;43896;48.178;11.578;2023-07-29T11:32:39;95486.22;;;22.38;59.20
58092;BME280;43896;48.178;11.578;2023-07-29T11:35:07;95497.94;;;22.20;59.60
58092;BME280;43896;48.178;11.578;2023-07-29T11:37:34;95502.50;;;23.33;55.88
58092;BME280;43896;48.178;11.578;2023-07-29T11:40:00;95488.56;;;23.98;54.53
58092;BME280;43896;48.178;11.578;2023-07-29T11:42:27;95481.44;;;24.08;54.46
58092;BME280;43896;48.178;11.578;2023-07-29T11:44:58;95488.25;;;24.43;52.95
58092;BME280;43896;48.178;11.578;2023-07-29T11:47:24;95490.47;;;24.51;53.77
58092;BME280;43896;48.178;11.578;2023-07-29T11:49:49;95464.22;;;24.59;53.09
58092;BME280;43896;48.178;11.578;2023-07-29T11:52:15;95441.59;;;24.00;54.33
58092;BME280;43896;48.178;11.578;2023-07-29T11:54:44;95460.03;;;24.73;52.04
58092;BME280;43896;48.178;11.578;2023-07-29T11:57:10;95473.03;;;24.86;51.79
58092;BME280;43896;48.178;11.578;2023-07-29T11:59:37;95477.19;;;25.04;53.26
58092;BME280;43896;48.178;11.578;2023-07-29T12:02:09;95476.78;;;25.23;51.54
58092;BME280;43896;48.178;11.578;2023-07-29T12:04:36;95461.94;;;25.15;52.48
58092;BME280;43896;48.178;11.578;2023-07-29T12:07:03;95468.31;;;25.41;51.25
58092;BME280;43896;48.178;11.578;2023-07-29T12:09:28;95450.06;;;25.54;50.83
58092;BME280;43896;48.178;11.578;2023-07-29T12:11:55;95467.91;;;25.65;51.70
58092;BME280;43896;48.178;11.578;2023-07-29T12:14:20;95462.34;;;25.29;51.35
58092;BME280;43896;48.178;11.578;2023-07-29T12:16:48;95440.38;;;25.58;50.21
58092;BME280;43896;48.178;11.578;2023-07-29T12:19:15;95452.06;;;25.79;53.30
58092;BME280;43896;48.178;11.578;2023-07-29T12:21:44;95437.88;;;26.04;50.17
58092;BME280;43896;48.178;11.578;2023-07-29T12:24:09;95421.47;;;24.95;52.87
58092;BME280;43896;48.178;11.578;2023-07-29T12:26:37;95414.44;;;24.56;54.55
58092;BME280;43896;48.178;11.578;2023-07-29T12:29:13;95407.72;;;24.26;54.34
58092;BME280;43896;48.178;11.578;2023-07-29T12:31:39;95455.94;;;24.11;56.80
58092;BME280;43896;48.178;11.578;2023-07-29T12:34:04;95427.19;;;23.84;56.78
58092;BME280;43896;48.178;11.578;2023-07-29T12:41:43;95434.00;;;23.09;60.70
58092;BME280;43896;48.178;11.578;2023-07-29T12:44:08;95424.09;;;22.92;63.01
58092;BME280;43896;48.178;11.578;2023-07-29T12:46:33;95394.78;;;22.35;63.88
58092;BME280;43896;48.178;11.578;2023-07-29T12:48:59;95417.53;;;22.32;67.09
58092;BME280;43896;48.178;11.578;2023-07-29T12:51:24;95480.28;;;21.79;73.20
58092;BME280;43896;48.178;11.578;2023-07-29T12:53:49;95481.16;;;21.08;77.66
58092;BME280;43896;48.178;11.578;2023-07-29T12:56:15;95443.97;;;19.87;76.51
58092;BME280;43896;48.178;11.578;2023-07-29T12:58:40;95447.91;;;19.84;79.38
58092;BME280;43896;48.178;11.578;2023-07-29T13:01:05;95453.75;;;20.23;75.50
58092;BME280;43896;48.178;11.578;2023-07-29T13:03:31;95390.84;;;19.67;78.81
58092;BME280;43896;48.178;11.578;2023-07-29T13:05:56;95436.13;;;20.46;76.83
58092;BME280;43896;48.178;11.578;2023-07-29T13:08:22;95445.94;;;20.76;76.64
58092;BME280;43896;48.178;11.578;2023-07-29T13:10:48;95478.88;;;20.46;78.35
58092;BME280;43896;48.178;11.578;2023-07-29T13:13:13;95470.44;;;20.73;75.37
58092;BME280;43896;48.178;11.578;2023-07-29T13:15:39;95469.00;;;20.47;76.60
58092;BME280;43896;48.178;11.578;2023-07-29T13:18:04;95426.94;;;19.70;79.49
58092;BME280;43896;48.178;11.578;2023-07-29T13:20:29;95488.19;;;20.25;81.21
58092;BME280;43896;48.178;11.578;2023-07-29T13:22:55;95495.75;;;20.28;81.76
58092;BME280;43896;48.178;11.578;2023-07-29T13:25:20;95504.88;;;20.39;81.69